createdAt,value
2022-12-13T00:01:45.965Z,26.77
2022-12-13T00:04:13.777Z,27.10
2022-12-13T00:06:40.663Z,25.13
2022-12-13T00:09:08.541Z,24.98
2022-12-13T00:11:35.945Z,24.92
2022-12-13T00:14:02.664Z,26.98
2022-12-13T00:16:29.586Z,26.60
2022-12-13T00:18:58.895Z,26.67
2022-12-13T00:21:31.005Z,27.73
2022-12-13T00:23:58.826Z,27.92
2022-12-13T00:26:28.472Z,25.20
2022-12-13T00:28:56.264Z,26.45
2022-12-13T00:31:56.867Z,27.08
2022-12-13T00:34:11.488Z,27.50
2022-12-13T00:36:38.334Z,26.27
2022-12-13T00:39:05.239Z,24.58
2022-12-13T00:41:34.219Z,25.63
2022-12-13T00:44:01.638Z,25.88
2022-12-13T00:46:29.496Z,28.83
2022-12-13T00:48:59.054Z,30.23
2022-12-13T00:51:27.797Z,31.42
2022-12-13T00:53:55.216Z,34.33
2022-12-13T00:56:26.626Z,33.35
2022-12-13T00:58:55.200Z,33.25
2022-12-13T01:01:25.019Z,31.80
2022-12-13T01:03:55.268Z,30.88
2022-12-13T01:06:43.796Z,30.90
2022-12-13T01:09:23.129Z,29.80
2022-12-13T01:11:50.645Z,28.88
2022-12-13T01:14:18.541Z,30.92
2022-12-13T01:16:45.682Z,28.98
2022-12-13T01:19:12.595Z,30.77
2022-12-13T01:21:39.484Z,29.63
2022-12-13T01:24:07.264Z,28.83
2022-12-13T01:26:34.129Z,27.65
2022-12-13T01:29:00.996Z,27.08
2022-12-13T01:31:27.832Z,28.45
2022-12-13T01:33:54.615Z,26.88
2022-12-13T01:36:27.526Z,29.98
2022-12-13T01:38:59.363Z,26.85
2022-12-13T01:41:28.314Z,25.80
2022-12-13T01:44:00.859Z,27.33
2022-12-13T01:46:27.818Z,27.42
2022-12-13T01:49:20.330Z,26.88
2022-12-13T01:51:56.886Z,27.88
2022-12-13T01:54:33.628Z,27.25
2022-12-13T01:57:03.356Z,26.02
2022-12-13T01:59:30.406Z,27.00
2022-12-13T02:02:00.851Z,26.98
2022-12-13T02:04:44.242Z,27.73
2022-12-13T02:07:23.116Z,25.88
2022-12-13T02:09:56.704Z,26.92
2022-12-13T02:12:30.250Z,25.35
2022-12-13T02:15:04.887Z,28.08
2022-12-13T02:17:46.658Z,27.75
2022-12-13T02:20:37.402Z,25.60
2022-12-13T02:23:22.285Z,27.55
2022-12-13T02:25:57.983Z,23.88
2022-12-13T02:28:43.436Z,26.15
2022-12-13T02:31:14.999Z,27.67
2022-12-13T02:33:53.286Z,26.53
2022-12-13T02:36:36.162Z,26.40
2022-12-13T02:39:17.479Z,26.55
2022-12-13T02:42:07.721Z,24.95
2022-12-13T02:45:01.218Z,26.30
2022-12-13T02:47:30.895Z,26.15
2022-12-13T02:50:02.645Z,26.50
2022-12-13T02:52:31.907Z,26.88
2022-12-13T02:54:59.124Z,25.88
2022-12-13T02:57:37.882Z,27.77
2022-12-13T03:00:17.694Z,25.02
2022-12-13T03:03:11.681Z,26.58
2022-12-13T03:06:24.000Z,26.42
2022-12-13T03:09:20.558Z,24.80
2022-12-13T03:12:24.407Z,27.67
2022-12-13T03:14:57.180Z,26.10
2022-12-13T03:17:26.260Z,24.33
2022-12-13T03:19:54.220Z,25.50
2022-12-13T03:22:21.275Z,26.73
2022-12-13T03:24:48.255Z,26.60
2022-12-13T03:27:15.046Z,25.73
2022-12-13T03:29:41.809Z,26.58
2022-12-13T03:32:08.681Z,26.88
2022-12-13T03:34:43.697Z,26.65
2022-12-13T03:37:11.830Z,28.42
2022-12-13T03:39:38.713Z,24.90
2022-12-13T03:42:05.616Z,26.00
2022-12-13T03:44:32.456Z,25.10
2022-12-13T03:47:00.608Z,27.38
2022-12-13T03:49:27.748Z,25.33
2022-12-13T03:52:02.507Z,24.45
2022-12-13T03:54:29.241Z,24.85
2022-12-13T03:56:56.077Z,26.92
2022-12-13T03:59:22.779Z,26.27
2022-12-13T04:01:49.658Z,25.98
2022-12-13T04:04:17.316Z,25.63
2022-12-13T04:06:44.262Z,24.88
2022-12-13T04:09:11.070Z,25.55
2022-12-13T04:11:56.575Z,25.13
2022-12-13T04:14:23.356Z,24.67
2022-12-13T04:16:51.585Z,26.85
2022-12-13T04:19:22.921Z,24.90
2022-12-13T04:21:54.496Z,25.38
2022-12-13T04:24:22.545Z,25.85
2022-12-13T04:26:59.357Z,24.48
2022-12-13T04:29:27.716Z,27.30
2022-12-13T04:32:01.975Z,26.38
2022-12-13T04:34:33.288Z,27.58
2022-12-13T04:37:03.640Z,27.40
2022-12-13T04:39:34.429Z,24.70
2022-12-13T04:42:02.022Z,26.58
2022-12-13T04:44:35.120Z,26.55
2022-12-13T04:47:03.994Z,28.52
2022-12-13T04:49:31.203Z,27.58
2022-12-13T04:52:01.723Z,29.40
2022-12-13T04:54:36.176Z,28.27
2022-12-13T04:57:06.583Z,27.15
2022-12-13T04:59:33.431Z,26.02
2022-12-13T05:02:00.307Z,27.65
2022-12-13T05:04:32.329Z,27.25
2022-12-13T05:07:02.930Z,27.50
2022-12-13T05:09:31.669Z,26.27
2022-12-13T05:12:01.140Z,27.88
2022-12-13T05:14:32.437Z,27.48
2022-12-13T05:17:02.566Z,25.90
2022-12-13T05:19:31.418Z,28.15
2022-12-13T05:22:01.533Z,26.40
2022-12-13T05:24:29.973Z,24.48
2022-12-13T05:26:57.819Z,25.75
2022-12-13T05:29:24.566Z,23.30
2022-12-13T05:31:51.483Z,21.60
2022-12-13T05:34:19.064Z,25.88
2022-12-13T05:36:45.876Z,24.85
2022-12-13T05:39:27.543Z,24.95
2022-12-13T05:42:02.133Z,23.88
2022-12-13T05:44:30.192Z,25.08
2022-12-13T05:46:56.943Z,22.98
2022-12-13T05:49:23.965Z,23.92
2022-12-13T05:51:51.016Z,23.58
2022-12-13T05:54:17.841Z,23.45
2022-12-13T05:56:44.600Z,23.13
2022-12-13T05:59:11.329Z,21.65
2022-12-13T06:01:38.058Z,23.95
2022-12-13T06:06:37.635Z,24.23
2022-12-13T06:09:04.497Z,23.15
2022-12-13T06:11:32.569Z,23.85
2022-12-13T06:14:01.149Z,23.92
2022-12-13T06:16:28.339Z,23.95
2022-12-13T06:19:03.801Z,23.63
2022-12-13T06:21:41.187Z,26.50
2022-12-13T06:24:11.044Z,28.42
2022-12-13T06:26:37.786Z,24.65
2022-12-13T06:29:04.609Z,25.58
2022-12-13T06:31:31.476Z,26.17
2022-12-13T06:34:14.246Z,24.55
2022-12-13T06:36:42.584Z,25.80
2022-12-13T06:39:09.465Z,22.80
2022-12-13T06:41:36.957Z,23.33
2022-12-13T06:44:04.908Z,24.80
2022-12-13T06:46:32.419Z,24.27
2022-12-13T06:48:59.313Z,25.25
2022-12-13T06:51:32.949Z,24.70
2022-12-13T06:54:01.485Z,23.02
2022-12-13T06:56:28.753Z,22.88
2022-12-13T06:59:01.437Z,22.02
2022-12-13T07:01:37.618Z,24.20
2022-12-13T07:04:29.787Z,24.60
2022-12-13T07:06:53.226Z,22.90
2022-12-13T07:09:20.038Z,24.63
2022-12-13T07:11:52.021Z,24.23
2022-12-13T07:14:19.897Z,24.33
2022-12-13T07:16:46.866Z,25.58
2022-12-13T07:19:23.527Z,23.67
2022-12-13T07:21:51.941Z,24.67
2022-12-13T07:24:19.044Z,25.70
2022-12-13T07:26:54.987Z,25.38
2022-12-13T07:29:22.250Z,25.75
2022-12-13T07:31:49.854Z,24.77
2022-12-13T07:34:16.779Z,24.40
2022-12-13T07:36:43.539Z,22.92
2022-12-13T07:39:11.825Z,21.67
2022-12-13T07:41:39.380Z,24.63
2022-12-13T07:44:06.164Z,23.25
2022-12-13T07:46:34.352Z,21.83
2022-12-13T07:49:02.886Z,22.80
2022-12-13T07:51:29.690Z,22.52
2022-12-13T07:53:57.200Z,22.67
2022-12-13T07:56:23.921Z,23.00
2022-12-13T07:58:51.281Z,23.23
2022-12-13T08:01:18.549Z,21.30
2022-12-13T08:03:48.306Z,21.25
2022-12-13T08:06:15.088Z,21.17
2022-12-13T08:08:42.216Z,22.02
2022-12-13T08:11:15.389Z,22.15
2022-12-13T08:13:42.221Z,24.65
2022-12-13T08:16:27.996Z,23.15
2022-12-13T08:19:02.399Z,22.23
2022-12-13T08:21:56.166Z,24.17
2022-12-13T08:26:51.153Z,21.70
2022-12-13T08:29:22.199Z,20.95
2022-12-13T08:31:58.933Z,22.65
2022-12-13T08:34:28.168Z,21.05
2022-12-13T08:37:02.840Z,21.83
2022-12-13T08:39:36.465Z,22.98
2022-12-13T08:42:16.680Z,22.70
2022-12-13T08:44:46.522Z,21.40
2022-12-13T08:47:22.668Z,22.80
2022-12-13T08:49:50.940Z,23.15
2022-12-13T08:52:17.926Z,22.27
2022-12-13T08:54:44.779Z,22.92
2022-12-13T08:57:11.543Z,23.95
2022-12-13T08:59:38.286Z,22.65
2022-12-13T09:02:05.440Z,20.95
2022-12-13T09:04:32.495Z,22.85
2022-12-13T09:07:01.261Z,21.58
2022-12-13T09:09:29.702Z,22.95
2022-12-13T09:11:59.660Z,23.55
2022-12-13T09:14:33.972Z,22.08
2022-12-13T09:17:02.745Z,21.95
2022-12-13T09:19:37.219Z,22.75
2022-12-13T09:22:05.234Z,23.08
2022-12-13T09:24:36.229Z,23.55
2022-12-13T09:27:09.283Z,22.73
2022-12-13T09:29:38.201Z,23.02
2022-12-13T09:32:05.266Z,21.92
2022-12-13T09:34:35.281Z,25.42
2022-12-13T09:37:02.145Z,22.88
2022-12-13T09:39:29.565Z,24.80
2022-12-13T09:42:01.340Z,24.33
2022-12-13T09:44:46.426Z,23.08
2022-12-13T09:47:35.553Z,22.17
2022-12-13T09:50:07.976Z,23.75
2022-12-13T09:52:44.140Z,23.25
2022-12-13T09:55:21.961Z,25.95
2022-12-13T09:57:49.633Z,24.17
2022-12-13T10:00:20.241Z,22.27
2022-12-13T10:02:50.457Z,22.38
2022-12-13T10:05:38.390Z,23.30
2022-12-13T10:08:27.979Z,24.45
2022-12-13T10:10:54.714Z,22.77
2022-12-13T10:13:39.738Z,24.27
2022-12-13T10:16:23.767Z,23.90
2022-12-13T10:18:51.678Z,20.90
2022-12-13T10:21:26.690Z,22.15
2022-12-13T10:26:43.367Z,23.55
2022-12-13T10:29:11.036Z,25.58
2022-12-13T10:31:42.203Z,24.45
2022-12-13T10:34:30.238Z,22.83
2022-12-13T10:36:59.871Z,22.67
2022-12-13T10:39:42.216Z,22.75
2022-12-13T10:42:23.390Z,23.13
2022-12-13T10:45:15.359Z,23.60
2022-12-13T10:47:45.787Z,22.13
2022-12-13T10:50:27.854Z,23.42
2022-12-13T10:52:55.806Z,23.17
2022-12-13T10:55:34.948Z,23.65
2022-12-13T10:58:07.110Z,23.98
2022-12-13T11:00:38.097Z,24.80
2022-12-13T11:03:06.095Z,23.98
2022-12-13T11:05:35.255Z,24.55
2022-12-13T11:08:22.577Z,23.48
2022-12-13T11:11:01.350Z,23.90
2022-12-13T11:13:50.870Z,24.90
2022-12-13T11:16:40.268Z,24.08
2022-12-13T11:19:49.654Z,23.80
2022-12-13T11:22:23.336Z,24.33
2022-12-13T11:24:55.182Z,24.75
2022-12-13T11:27:44.159Z,24.10
2022-12-13T11:30:13.844Z,23.90
2022-12-13T11:32:58.897Z,25.55
2022-12-13T11:35:47.698Z,25.23
2022-12-13T11:38:26.758Z,26.65
2022-12-13T11:41:32.858Z,24.95
2022-12-13T11:44:12.560Z,24.92
2022-12-13T11:46:42.757Z,24.67
2022-12-13T11:49:17.802Z,25.42
2022-12-13T11:51:59.776Z,25.60
2022-12-13T11:54:43.177Z,24.95
2022-12-13T11:57:23.440Z,25.98
2022-12-13T12:00:02.374Z,25.00
2022-12-13T12:02:42.702Z,26.15
2022-12-13T12:05:22.642Z,26.73
2022-12-13T12:08:31.000Z,24.48
2022-12-13T12:10:49.977Z,24.63
2022-12-13T12:13:23.666Z,27.10
2022-12-13T12:16:20.681Z,26.10
2022-12-13T12:18:47.481Z,25.67
2022-12-13T12:21:42.775Z,24.75
2022-12-13T12:24:33.553Z,24.33
2022-12-13T12:27:25.964Z,24.73
2022-12-13T12:30:07.283Z,25.23
2022-12-13T12:32:43.002Z,25.65
2022-12-13T12:35:20.873Z,24.77
2022-12-13T12:38:01.336Z,25.10
2022-12-13T12:41:15.074Z,24.40
2022-12-13T12:43:42.646Z,23.55
2022-12-13T12:47:01.690Z,25.38
2022-12-13T12:49:45.082Z,23.63
2022-12-13T12:52:41.622Z,24.42
2022-12-13T12:55:46.399Z,24.20
2022-12-13T12:58:30.821Z,24.23
2022-12-13T13:01:17.746Z,24.65
2022-12-13T13:03:45.220Z,24.02
2022-12-13T13:06:14.143Z,23.95
2022-12-13T13:08:51.703Z,23.63
2022-12-13T13:11:24.729Z,24.80
2022-12-13T13:14:01.879Z,25.67
2022-12-13T13:16:35.098Z,23.90
2022-12-13T13:19:03.157Z,23.08
2022-12-13T13:21:34.600Z,24.20
2022-12-13T13:24:13.766Z,24.30
2022-12-13T13:26:50.006Z,23.35
2022-12-13T13:29:28.652Z,22.85
2022-12-13T13:32:12.403Z,23.20
2022-12-13T13:35:28.225Z,23.75
2022-12-13T13:37:55.914Z,22.80
2022-12-13T13:40:42.295Z,22.15
2022-12-13T13:43:12.501Z,23.85
2022-12-13T13:46:00.060Z,23.27
2022-12-13T13:48:45.660Z,22.50
2022-12-13T13:51:54.927Z,20.77
2022-12-13T13:55:00.451Z,20.67
2022-12-13T13:58:07.588Z,22.45
2022-12-13T14:00:41.370Z,22.17
2022-12-13T14:03:40.938Z,20.45
2022-12-13T14:06:32.931Z,20.83
2022-12-13T14:09:16.172Z,23.30
2022-12-13T14:12:13.284Z,21.85
2022-12-13T14:15:07.603Z,19.50
2022-12-13T14:17:52.911Z,19.88
2022-12-13T14:20:49.694Z,22.67
2022-12-13T14:23:22.352Z,21.02
2022-12-13T14:26:16.127Z,21.80
2022-12-13T14:28:55.086Z,21.25
2022-12-13T14:31:30.792Z,21.15
2022-12-13T14:33:59.682Z,21.33
2022-12-13T14:36:32.174Z,19.73
2022-12-13T14:39:01.462Z,20.25
2022-12-13T14:41:28.398Z,20.33
2022-12-13T14:43:55.170Z,20.27
2022-12-13T14:46:22.041Z,19.17
2022-12-13T14:48:53.985Z,20.35
2022-12-13T14:51:35.617Z,21.05
2022-12-13T14:54:04.180Z,19.55
2022-12-13T14:56:31.122Z,19.63
2022-12-13T14:59:00.207Z,19.92
2022-12-13T15:01:30.065Z,21.33
2022-12-13T15:04:21.334Z,19.83
2022-12-13T15:06:55.226Z,20.60
2022-12-13T15:09:24.072Z,19.38
2022-12-13T15:12:01.365Z,19.83
2022-12-13T15:14:59.863Z,20.38
2022-12-13T15:17:34.981Z,20.67
2022-12-13T15:20:26.452Z,20.58
2022-12-13T15:23:33.691Z,21.05
2022-12-13T15:26:12.932Z,21.52
2022-12-13T15:29:09.829Z,20.98
2022-12-13T15:31:37.583Z,20.95
2022-12-13T15:34:28.920Z,20.05
2022-12-13T15:37:03.197Z,19.88
2022-12-13T15:39:31.165Z,20.95
2022-12-13T15:41:59.583Z,23.25
2022-12-13T15:44:48.170Z,19.80
2022-12-13T15:47:28.267Z,21.58
2022-12-13T15:50:02.010Z,20.17
2022-12-13T15:52:33.289Z,20.95
2022-12-13T15:55:06.914Z,20.70
2022-12-13T15:57:35.482Z,19.17
2022-12-13T16:00:10.542Z,20.75
2022-12-13T16:02:56.774Z,19.83
2022-12-13T16:05:34.122Z,20.02
2022-12-13T16:08:14.461Z,19.92
2022-12-13T16:10:50.352Z,19.35
2022-12-13T16:13:27.484Z,21.63
2022-12-13T16:16:00.265Z,18.50
2022-12-13T16:18:50.984Z,19.38
2022-12-13T16:21:17.667Z,20.63
2022-12-13T16:23:48.696Z,19.08
2022-12-13T16:26:22.134Z,18.17
2022-12-13T16:28:48.985Z,19.33
2022-12-13T16:31:27.873Z,19.00
2022-12-13T16:33:54.654Z,20.08
2022-12-13T16:36:21.382Z,20.90
2022-12-13T16:38:48.798Z,20.90
2022-12-13T16:41:16.133Z,20.10
2022-12-13T16:43:56.343Z,21.30
2022-12-13T16:47:11.643Z,20.08
2022-12-13T16:49:26.383Z,20.23
2022-12-13T16:51:53.797Z,21.67
2022-12-13T16:54:21.784Z,22.23
2022-12-13T16:56:49.534Z,21.23
2022-12-13T16:59:18.810Z,22.33
2022-12-13T17:01:46.346Z,22.30
2022-12-13T17:04:20.144Z,20.90
2022-12-13T17:06:54.863Z,21.50
2022-12-13T17:09:23.191Z,21.77
2022-12-13T17:11:49.914Z,23.30
2022-12-13T17:14:16.673Z,22.33
2022-12-13T17:16:43.579Z,22.15
2022-12-13T17:19:11.984Z,23.13
2022-12-13T17:21:38.708Z,22.70
2022-12-13T17:24:05.910Z,21.95
2022-12-13T17:26:33.014Z,22.95
2022-12-13T17:28:59.716Z,22.25
2022-12-13T17:31:31.830Z,23.30
2022-12-13T17:34:02.639Z,22.50
2022-12-13T17:36:31.338Z,22.33
2022-12-13T17:38:58.136Z,22.42
2022-12-13T17:41:24.833Z,23.73
2022-12-13T17:43:51.538Z,22.95
2022-12-13T17:46:19.088Z,22.30
2022-12-13T17:48:46.007Z,22.88
2022-12-13T17:51:14.453Z,23.58
2022-12-13T17:53:43.393Z,23.92
2022-12-13T17:56:12.471Z,25.38
2022-12-13T17:58:40.076Z,22.58
2022-12-13T18:01:25.022Z,22.88
2022-12-13T18:03:53.909Z,21.48
2022-12-13T18:06:20.618Z,23.08
2022-12-13T18:08:47.910Z,23.20
2022-12-13T18:11:33.385Z,23.63
2022-12-13T18:14:05.413Z,22.38
2022-12-13T18:16:37.598Z,24.50
2022-12-13T18:19:06.655Z,22.75
2022-12-13T18:21:35.240Z,22.70
2022-12-13T18:24:02.269Z,24.05
2022-12-13T18:26:28.994Z,23.33
2022-12-13T18:28:55.623Z,22.25
2022-12-13T18:31:25.006Z,23.95
2022-12-13T18:33:53.865Z,23.77
2022-12-13T18:36:22.835Z,23.67
2022-12-13T18:38:49.721Z,24.33
2022-12-13T18:41:20.164Z,21.60
2022-12-13T18:43:47.541Z,21.85
2022-12-13T18:46:14.982Z,22.33
2022-12-13T18:48:42.059Z,23.95
2022-12-13T18:51:10.329Z,23.20
2022-12-13T18:53:38.177Z,22.98
2022-12-13T18:56:11.620Z,24.02
2022-12-13T18:58:41.659Z,21.92
2022-12-13T19:01:10.622Z,22.25
2022-12-13T19:03:37.716Z,22.75
2022-12-13T19:06:05.969Z,24.17
2022-12-13T19:08:33.384Z,22.85
2022-12-13T19:11:01.865Z,23.75
2022-12-13T19:13:29.853Z,24.20
2022-12-13T19:15:58.638Z,22.77
2022-12-13T19:18:25.392Z,23.55
2022-12-13T19:20:53.648Z,22.95
2022-12-13T19:23:20.694Z,23.50
2022-12-13T19:25:48.506Z,23.70
2022-12-13T19:28:17.389Z,23.92
2022-12-13T19:30:45.992Z,24.38
2022-12-13T19:33:13.759Z,21.75
2022-12-13T19:35:42.997Z,21.45
2022-12-13T19:38:10.092Z,22.75
2022-12-13T19:40:39.762Z,20.35
2022-12-13T19:43:06.940Z,22.33
2022-12-13T19:45:34.036Z,21.90
2022-12-13T19:48:00.710Z,22.42
2022-12-13T19:50:28.609Z,21.67
2022-12-13T19:52:55.866Z,21.73
2022-12-13T19:55:22.546Z,22.08
2022-12-13T19:57:49.280Z,21.10
2022-12-13T20:00:16.590Z,21.45
2022-12-13T20:02:43.438Z,21.77
2022-12-13T20:05:10.130Z,21.85
2022-12-13T20:07:36.805Z,21.58
2022-12-13T20:10:04.974Z,21.85
2022-12-13T20:12:35.677Z,21.38
2022-12-13T20:15:08.251Z,20.90
2022-12-13T20:17:35.835Z,22.17
2022-12-13T20:20:03.844Z,20.40
2022-12-13T20:22:31.558Z,21.95
2022-12-13T20:24:58.591Z,21.40
2022-12-13T20:27:25.910Z,20.95
2022-12-13T20:29:52.664Z,21.95
2022-12-13T20:32:20.975Z,20.98
2022-12-13T20:34:51.725Z,20.33
2022-12-13T20:37:23.732Z,21.55
2022-12-13T20:39:50.823Z,22.60
2022-12-13T20:42:17.543Z,19.45
2022-12-13T20:44:44.727Z,21.25
2022-12-13T20:47:11.470Z,22.25
2022-12-13T20:49:38.138Z,21.58
2022-12-13T20:52:04.981Z,21.75
2022-12-13T20:54:31.625Z,21.65
2022-12-13T20:56:58.354Z,21.35
2022-12-13T20:59:25.013Z,21.52
2022-12-13T21:01:51.821Z,21.48
2022-12-13T21:04:18.655Z,21.48
2022-12-13T21:06:45.372Z,22.15
2022-12-13T21:09:12.411Z,21.88
2022-12-13T21:11:42.406Z,21.30
2022-12-13T21:14:16.982Z,20.50
2022-12-13T21:16:50.424Z,21.65
2022-12-13T21:19:21.457Z,21.23
2022-12-13T21:21:48.582Z,21.77
2022-12-13T21:24:17.162Z,20.42
2022-12-13T21:26:44.374Z,21.92
2022-12-13T21:29:12.636Z,22.08
2022-12-13T21:31:41.304Z,21.65
2022-12-13T21:34:08.376Z,21.00
2022-12-13T21:36:40.676Z,21.85
2022-12-13T21:39:12.480Z,22.23
2022-12-13T21:41:39.633Z,20.30
2022-12-13T21:44:06.440Z,22.40
2022-12-13T21:47:10.268Z,21.70
2022-12-13T21:49:20.050Z,22.15
2022-12-13T21:51:48.469Z,22.05
2022-12-13T21:54:15.569Z,21.35
2022-12-13T21:57:00.753Z,22.45
2022-12-13T21:59:28.789Z,21.05
2022-12-13T22:02:18.037Z,21.13
2022-12-13T22:04:50.866Z,22.85
2022-12-13T22:07:28.821Z,22.38
2022-12-13T22:09:56.752Z,22.13
2022-12-13T22:12:32.987Z,22.27
2022-12-13T22:14:59.789Z,22.40
2022-12-13T22:17:34.685Z,21.65
2022-12-13T22:20:04.400Z,21.25
2022-12-13T22:22:31.180Z,21.02
2022-12-13T22:24:57.950Z,22.13
2022-12-13T22:27:25.560Z,22.75
2022-12-13T22:29:54.184Z,21.52
2022-12-13T22:32:22.372Z,22.80
2022-12-13T22:34:49.190Z,22.73
2022-12-13T22:37:16.130Z,23.02
2022-12-13T22:39:43.210Z,22.15
2022-12-13T22:42:09.879Z,22.70
2022-12-13T22:44:36.515Z,23.13
2022-12-13T22:47:03.179Z,21.05
2022-12-13T22:49:29.818Z,21.10
2022-12-13T22:51:56.539Z,21.65
2022-12-13T22:54:23.484Z,21.30
2022-12-13T22:56:50.984Z,22.70
2022-12-13T22:59:17.636Z,21.85
2022-12-13T23:01:47.320Z,21.05
2022-12-13T23:04:15.208Z,21.80
2022-12-13T23:06:41.958Z,23.50
2022-12-13T23:09:12.092Z,22.40
2022-12-13T23:11:57.866Z,23.85
2022-12-13T23:14:33.109Z,23.40
2022-12-13T23:17:01.178Z,22.45
2022-12-13T23:19:49.581Z,22.92
2022-12-13T23:22:15.408Z,23.80
2022-12-13T23:24:42.725Z,21.83
2022-12-13T23:27:09.444Z,23.60
2022-12-13T23:29:36.275Z,22.15
2022-12-13T23:32:03.054Z,22.48
2022-12-13T23:34:29.750Z,22.38
2022-12-13T23:36:56.425Z,23.55
2022-12-13T23:39:23.080Z,22.88
2022-12-13T23:41:49.791Z,21.67
2022-12-13T23:44:16.492Z,22.88
2022-12-13T23:46:48.539Z,20.33
2022-12-13T23:51:42.471Z,20.17
2022-12-13T23:54:11.732Z,20.67
2022-12-13T23:56:38.360Z,22.10
2022-12-13T23:59:05.042Z,20.52
